Time;durP1;ratioP1;P1;durP2;ratioP2;P2;SDS_P1;SDS_P2;PMS_P1;PMS_P2;Temp;Humidity;BMP_temperature;BMP_pressure;BME280_temperature;BME280_humidity;BME280_pressure;Samples;Min_cycle;Max_cycle;Signal;HPM_P1;HPM_P2
2021/03/12 00:01:00;;;;;;;1.98;1.27;;;7.00;99.90;;;;;;5155381;27;20173;-79
2021/03/12 00:03:31;;;;;;;2.70;1.48;;;7.10;99.90;;;;;;5131548;28;20206;-78
2021/03/12 00:06:01;;;;;;;2.95;2.00;;;7.10;99.90;;;;;;5132883;27;20178;-77
2021/03/12 00:08:30;;;;;;;3.55;2.10;;;7.20;99.90;;;;;;5133293;28;20190;-75
2021/03/12 00:10:58;;;;;;;2.35;2.13;;;7.20;99.90;;;;;;5139245;27;20153;-76
2021/03/12 00:13:26;;;;;;;5.70;2.22;;;7.30;99.90;;;;;;5145227;27;20613;-76
2021/03/12 00:15:54;;;;;;;7.35;2.28;;;7.30;99.90;;;;;;5142714;27;20234;-78
2021/03/12 00:18:26;;;;;;;3.00;1.77;;;7.30;99.90;;;;;;5138116;27;20170;-77
2021/03/12 00:20:55;;;;;;;2.10;1.92;;;7.30;99.90;;;;;;5120279;27;20218;-77
2021/03/12 00:23:23;;;;;;;2.35;1.83;;;7.30;99.90;;;;;;5138550;27;20288;-76
2021/03/12 00:25:50;;;;;;;1.63;1.38;;;7.40;99.90;;;;;;5139312;27;20162;-78
2021/03/12 00:28:20;;;;;;;1.38;1.23;;;7.30;99.90;;;;;;5141266;27;20209;-78
2021/03/12 00:30:48;;;;;;;5.60;2.05;;;7.40;99.90;;;;;;5124037;27;20223;-75
2021/03/12 00:33:16;;;;;;;3.95;1.80;;;7.40;99.90;;;;;;5124023;27;20202;-77
2021/03/12 00:35:45;;;;;;;2.90;2.00;;;7.30;99.90;;;;;;5139172;27;20185;-77
2021/03/12 00:38:14;;;;;;;2.70;2.13;;;7.20;99.90;;;;;;5138742;27;20721;-77
2021/03/12 00:40:46;;;;;;;2.97;2.38;;;7.10;99.90;;;;;;5139755;27;20640;-77
2021/03/12 00:43:14;;;;;;;3.05;2.22;;;7.00;99.90;;;;;;5140970;27;20234;-77
2021/03/12 00:45:45;;;;;;;4.45;1.27;;;7.10;99.90;;;;;;5143401;27;20253;-77
2021/03/12 00:48:17;;;;;;;3.13;1.35;;;7.10;99.90;;;;;;5124425;27;20196;-76
2021/03/12 00:50:44;;;;;;;2.88;2.17;;;7.10;99.90;;;;;;5126233;27;20205;-78
2021/03/12 00:53:19;;;;;;;3.95;1.48;;;7.00;99.90;;;;;;5121978;27;20220;-77
2021/03/12 00:55:47;;;;;;;3.08;2.13;;;6.90;99.90;;;;;;5121682;27;20190;-77
2021/03/12 00:58:18;;;;;;;1.88;1.65;;;6.90;99.90;;;;;;5123339;27;20184;-78
2021/03/12 01:00:49;;;;;;;1.90;1.35;;;6.90;99.90;;;;;;5119166;27;20209;-79
2021/03/12 01:03:16;;;;;;;3.60;1.98;;;6.90;99.90;;;;;;5118630;27;20222;-78
2021/03/12 01:05:52;;;;;;;2.30;1.23;;;7.00;99.90;;;;;;5118359;27;20209;-77
2021/03/12 01:08:29;;;;;;;3.03;1.80;;;6.90;99.90;;;;;;5118066;27;20186;-77
2021/03/12 01:10:57;;;;;;;2.33;2.08;;;6.90;99.90;;;;;;5117856;27;20182;-77
2021/03/12 01:13:24;;;;;;;2.65;1.60;;;6.90;99.90;;;;;;5136212;27;20263;-76
2021/03/12 01:15:52;;;;;;;3.67;1.60;;;6.90;99.90;;;;;;5117452;27;20221;-76
2021/03/12 01:18:28;;;;;;;6.68;3.30;;;6.90;99.90;;;;;;5117587;27;20185;-77
2021/03/12 01:21:00;;;;;;;2.30;1.75;;;6.90;99.90;;;;;;5117378;27;20224;-77
2021/03/12 01:23:27;;;;;;;2.08;1.60;;;6.80;99.90;;;;;;5117167;27;20584;-77
2021/03/12 01:25:56;;;;;;;2.25;1.60;;;6.80;99.90;;;;;;5117155;27;20194;-78
2021/03/12 01:28:29;;;;;;;8.70;1.70;;;6.70;99.90;;;;;;5117536;27;20194;-77
2021/03/12 01:30:57;;;;;;;2.08;1.38;;;6.60;99.90;;;;;;5117535;27;20182;-76
2021/03/12 01:33:34;;;;;;;1.35;1.10;;;6.50;99.90;;;;;;5117523;27;20216;-77
2021/03/12 01:36:02;;;;;;;2.95;1.50;;;6.40;99.90;;;;;;5117275;27;20198;-78
2021/03/12 01:38:42;;;;;;;1.52;1.25;;;6.50;99.90;;;;;;5117269;27;20186;-76
2021/03/12 01:41:10;;;;;;;2.03;1.25;;;6.60;99.90;;;;;;5135721;27;20174;-77
2021/03/12 01:43:42;;;;;;;1.70;1.60;;;6.70;99.90;;;;;;5117165;27;20301;-77
2021/03/12 01:46:09;;;;;;;7.45;2.10;;;6.70;99.90;;;;;;5136690;27;20162;-77
2021/03/12 01:48:37;;;;;;;1.70;1.60;;;6.70;99.90;;;;;;5135402;27;20192;-76
2021/03/12 01:51:06;;;;;;;1.60;1.50;;;6.80;99.90;;;;;;5135536;27;20189;-78
2021/03/12 01:53:35;;;;;;;1.67;1.52;;;6.80;99.90;;;;;;5118338;22;20234;-76
2021/03/12 01:56:04;;;;;;;1.20;0.90;;;6.80;99.90;;;;;;5094681;28;20528;-76
2021/03/12 01:58:42;;;;;;;2.08;1.85;;;6.80;99.90;;;;;;5095806;28;20262;-76
2021/03/12 02:01:18;;;;;;;3.40;2.30;;;6.80;99.90;;;;;;5094625;28;20171;-75
2021/03/12 02:03:53;;;;;;;3.33;1.95;;;6.80;99.90;;;;;;5068318;28;20235;-77
2021/03/12 02:06:39;;;;;;;2.90;1.73;;;6.80;99.90;;;;;;5056836;28;20723;-76
2021/03/12 02:09:07;;;;;;;2.88;1.52;;;6.80;99.90;;;;;;5056640;28;20183;-76
2021/03/12 02:11:39;;;;;;;1.95;1.10;;;6.70;99.90;;;;;;5057038;28;20238;-75
2021/03/12 02:14:17;;;;;;;6.72;1.65;;;6.70;99.90;;;;;;5056721;28;20216;-76
2021/03/12 02:16:51;;;;;;;1.38;0.90;;;6.60;99.90;;;;;;5057144;28;20188;-76
2021/03/12 02:19:41;;;;;;;1.90;1.42;;;6.50;99.90;;;;;;5057000;28;20245;-78
2021/03/12 02:22:10;;;;;;;1.10;0.93;;;6.50;99.90;;;;;;5056757;28;20280;-76
2021/03/12 02:24:43;;;;;;;2.00;1.77;;;6.50;99.90;;;;;;5056369;28;20303;-75
2021/03/12 02:27:22;;;;;;;1.05;0.95;;;6.40;99.90;;;;;;5056581;28;20196;-75
2021/03/12 02:29:54;;;;;;;1.65;1.55;;;6.40;99.90;;;;;;5056785;28;20184;-77
2021/03/12 02:32:31;;;;;;;2.83;1.60;;;6.30;99.90;;;;;;5056626;28;20190;-77
2021/03/12 02:35:04;;;;;;;2.58;1.92;;;6.30;99.90;;;;;;5057967;28;20287;-75
2021/03/12 02:37:32;;;;;;;4.65;1.42;;;6.20;99.90;;;;;;5056848;28;20219;-75
2021/03/12 02:40:00;;;;;;;2.88;2.40;;;6.00;99.90;;;;;;5056981;28;20191;-75
2021/03/12 02:42:40;;;;;;;1.90;1.75;;;5.90;99.90;;;;;;5056436;28;20206;-76
2021/03/12 02:45:11;;;;;;;4.07;1.83;;;5.80;99.90;;;;;;5056657;28;20231;-77
2021/03/12 02:47:40;;;;;;;3.38;1.48;;;5.80;99.90;;;;;;5056243;28;20251;-76
2021/03/12 02:50:14;;;;;;;2.25;1.30;;;5.60;99.90;;;;;;5074291;28;20168;-76
2021/03/12 02:52:44;;;;;;;3.45;1.92;;;5.50;99.90;;;;;;5056273;28;20187;-77
2021/03/12 02:55:13;;;;;;;2.65;2.17;;;5.40;99.90;;;;;;5074538;28;20243;-76
2021/03/12 02:57:46;;;;;;;3.50;1.77;;;5.40;99.90;;;;;;5057337;28;20283;-75
2021/03/12 03:00:15;;;;;;;2.85;1.65;;;5.40;99.90;;;;;;5058574;28;20192;-75
2021/03/12 03:03:21;;;;;;;1.48;1.30;;;5.50;99.90;;;;;;5055793;28;20269;-77
2021/03/12 03:06:02;;;;;;;2.28;1.52;;;5.50;99.90;;;;;;5059543;28;20192;-75
2021/03/12 03:08:31;;;;;;;2.05;1.25;;;5.40;99.90;;;;;;5059086;28;20581;-78
2021/03/12 03:11:00;;;;;;;5.57;1.85;;;5.40;99.90;;;;;;5056911;28;20718;-76
2021/03/12 03:13:30;;;;;;;2.38;1.48;;;5.30;99.90;;;;;;5056793;28;20333;-76
2021/03/12 03:15:58;;;;;;;1.23;1.13;;;5.30;99.90;;;;;;5056352;28;20448;-76
2021/03/12 03:18:26;;;;;;;3.92;1.90;;;5.30;99.90;;;;;;5073812;28;20631;-76
2021/03/12 03:20:55;;;;;;;1.95;1.52;;;5.30;99.90;;;;;;5055953;28;20273;-76
2021/03/12 03:23:23;;;;;;;1.90;1.33;;;5.30;99.90;;;;;;5055980;28;20219;-77
2021/03/12 03:25:51;;;;;;;5.07;1.35;;;5.30;99.90;;;;;;5056192;28;20211;-77
2021/03/12 03:28:24;;;;;;;4.35;1.75;;;5.30;99.90;;;;;;5055713;28;20246;-77
2021/03/12 03:30:53;;;;;;;1.50;1.10;;;5.30;99.90;;;;;;5055778;28;20208;-76
2021/03/12 03:33:20;;;;;;;1.67;1.10;;;5.30;99.90;;;;;;5055768;28;20233;-76
2021/03/12 03:35:48;;;;;;;2.55;1.35;;;5.40;99.90;;;;;;5055910;28;20654;-76
2021/03/12 03:38:16;;;;;;;2.30;1.40;;;5.40;99.90;;;;;;5073866;28;20168;-76
2021/03/12 03:40:43;;;;;;;1.50;1.00;;;5.40;99.90;;;;;;5055506;28;20253;-77
2021/03/12 03:43:12;;;;;;;1.10;1.00;;;5.40;99.90;;;;;;5052514;28;20199;-76
2021/03/12 03:45:42;;;;;;;1.40;1.08;;;5.40;99.90;;;;;;5052655;28;20319;-75
2021/03/12 03:48:22;;;;;;;1.55;1.30;;;5.30;99.90;;;;;;5049046;28;20196;-76
2021/03/12 03:50:50;;;;;;;4.82;1.15;;;5.40;99.90;;;;;;5073728;28;20187;-77
2021/03/12 03:53:20;;;;;;;3.05;1.35;;;5.40;99.90;;;;;;5055510;28;20208;-76
2021/03/12 03:55:48;;;;;;;2.15;1.10;;;5.40;99.90;;;;;;5055586;28;20215;-77
2021/03/12 03:58:18;;;;;;;1.45;1.17;;;5.40;99.90;;;;;;5055822;28;20279;-75
2021/03/12 04:00:46;;;;;;;3.33;1.17;;;5.40;99.90;;;;;;5055366;28;20266;-76
2021/03/12 04:03:14;;;;;;;2.38;1.10;;;5.40;99.90;;;;;;5055787;28;20725;-76
2021/03/12 04:05:54;;;;;;;1.15;0.73;;;5.40;99.90;;;;;;5057580;28;20593;-75
2021/03/12 04:08:23;;;;;;;3.45;2.63;;;5.40;99.90;;;;;;5058649;28;20206;-76
2021/03/12 04:10:51;;;;;;;1.65;1.02;;;5.40;99.90;;;;;;5062275;28;20214;-75
2021/03/12 04:13:19;;;;;;;2.28;0.75;;;5.30;99.90;;;;;;5073232;28;20219;-76
2021/03/12 04:15:47;;;;;;;1.92;0.88;;;5.30;99.90;;;;;;5081531;28;20666;-74
2021/03/12 04:18:15;;;;;;;2.47;0.80;;;5.20;99.90;;;;;;5068108;28;20650;-76
2021/03/12 04:20:43;;;;;;;4.20;1.20;;;5.20;99.90;;;;;;5079577;28;20180;-74
2021/03/12 04:23:12;;;;;;;1.17;1.05;;;5.30;99.90;;;;;;5075353;28;20255;-75
2021/03/12 04:25:41;;;;;;;1.10;0.90;;;5.20;99.90;;;;;;5056794;28;20250;-75
2021/03/12 04:28:11;;;;;;;1.60;1.10;;;5.20;99.90;;;;;;5055383;28;20230;-76
2021/03/12 04:30:38;;;;;;;2.33;0.93;;;5.20;99.90;;;;;;5055484;28;20184;-76
2021/03/12 04:33:08;;;;;;;1.98;1.20;;;5.20;99.90;;;;;;5055770;28;20666;-76
2021/03/12 04:35:41;;;;;;;1.17;0.95;;;5.20;99.90;;;;;;5055188;28;20184;-76
2021/03/12 04:38:10;;;;;;;2.30;0.90;;;5.30;99.90;;;;;;5059817;28;20221;-76
2021/03/12 04:40:38;;;;;;;2.65;1.08;;;5.40;99.90;;;;;;5075329;28;20188;-76
2021/03/12 04:43:08;;;;;;;1.88;1.60;;;5.40;99.90;;;;;;5075855;28;20187;-76
2021/03/12 04:45:36;;;;;;;3.33;1.10;;;5.40;99.90;;;;;;5075632;28;20298;-75
2021/03/12 04:48:05;;;;;;;2.45;1.15;;;5.40;99.90;;;;;;5075195;28;20213;-77
2021/03/12 04:50:33;;;;;;;1.77;1.00;;;5.40;99.90;;;;;;5094800;28;20198;-76
2021/03/12 04:53:05;;;;;;;5.55;1.08;;;5.40;99.90;;;;;;5092371;28;20294;-77
2021/03/12 04:55:33;;;;;;;7.82;2.20;;;5.40;99.90;;;;;;5094831;28;20191;-76
2021/03/12 04:58:02;;;;;;;4.20;1.80;;;5.40;99.90;;;;;;5115722;28;20168;-76
2021/03/12 05:00:31;;;;;;;1.45;0.90;;;5.40;99.90;;;;;;5093888;28;20195;-75
2021/03/12 05:03:11;;;;;;;1.63;1.27;;;5.40;99.90;;;;;;5096480;28;20186;-76
2021/03/12 05:05:42;;;;;;;1.70;1.10;;;5.40;99.90;;;;;;5101201;28;20208;-74
2021/03/12 05:08:12;;;;;;;5.00;1.50;;;5.40;99.90;;;;;;5097977;28;20198;-76
2021/03/12 05:11:02;;;;;;;3.70;2.17;;;5.40;99.90;;;;;;5084631;28;20191;-75
2021/03/12 05:13:38;;;;;;;5.60;1.67;;;5.40;99.90;;;;;;5088130;28;20237;-75
2021/03/12 05:16:06;;;;;;;2.22;1.73;;;5.40;99.90;;;;;;5080591;28;20213;-75
2021/03/12 05:18:34;;;;;;;4.93;2.08;;;5.40;99.90;;;;;;5078606;28;20191;-74
2021/03/12 05:21:05;;;;;;;2.80;1.05;;;5.40;99.90;;;;;;5078475;28;20227;-78
2021/03/12 05:23:33;;;;;;;3.05;1.50;;;5.40;99.90;;;;;;5096299;28;20259;-76
2021/03/12 05:26:01;;;;;;;2.13;1.60;;;5.40;99.90;;;;;;5077893;28;20258;-76
2021/03/12 05:28:28;;;;;;;3.30;2.05;;;5.40;99.90;;;;;;5077627;28;20313;-77
2021/03/12 05:30:57;;;;;;;2.75;1.65;;;5.30;99.90;;;;;;5077271;28;20191;-76
2021/03/12 05:33:25;;;;;;;3.08;1.90;;;5.30;99.90;;;;;;5077372;28;20265;-76
2021/03/12 05:35:54;;;;;;;2.95;1.70;;;5.30;99.90;;;;;;5077613;28;20184;-76
2021/03/12 05:38:21;;;;;;;3.20;1.40;;;5.30;99.90;;;;;;5095783;28;20575;-78
2021/03/12 05:40:49;;;;;;;2.00;1.77;;;5.20;99.90;;;;;;5077326;28;20202;-77
2021/03/12 05:43:18;;;;;;;2.45;2.05;;;5.20;99.90;;;;;;5077573;28;20225;-76
2021/03/12 05:45:59;;;;;;;2.00;1.75;;;5.20;99.90;;;;;;5077890;28;20211;-76
2021/03/12 05:48:28;;;;;;;4.70;2.40;;;5.10;99.90;;;;;;5078106;28;20586;-75
2021/03/12 05:50:58;;;;;;;2.17;1.75;;;5.10;99.90;;;;;;5077055;28;20176;-75
2021/03/12 05:53:26;;;;;;;3.65;2.45;;;5.10;99.90;;;;;;5074795;28;20227;-76
2021/03/12 05:55:55;;;;;;;2.42;1.95;;;5.10;99.90;;;;;;5074426;28;20552;-77
2021/03/12 05:58:25;;;;;;;13.82;3.60;;;5.20;99.90;;;;;;5072255;28;20219;-75
2021/03/12 06:00:59;;;;;;;3.92;2.30;;;5.20;99.90;;;;;;5074297;28;20176;-76
2021/03/12 06:03:27;;;;;;;4.78;3.25;;;5.20;99.90;;;;;;5074154;28;20269;-76
2021/03/12 06:05:55;;;;;;;1.98;1.70;;;5.10;99.90;;;;;;5073109;28;20212;-77
2021/03/12 06:08:25;;;;;;;2.30;1.60;;;5.10;99.90;;;;;;5071721;28;20607;-75
2021/03/12 06:10:53;;;;;;;3.75;2.05;;;5.10;99.90;;;;;;5072763;28;20192;-75
2021/03/12 06:13:27;;;;;;;2.45;1.63;;;5.10;99.90;;;;;;5073965;28;20617;-77
2021/03/12 06:16:23;;;;;;;4.43;2.97;;;5.20;99.90;;;;;;5072581;28;20195;-75
2021/03/12 06:19:11;;;;;;;3.85;2.22;;;5.20;99.90;;;;;;5072845;28;20184;-76
2021/03/12 06:21:38;;;;;;;3.25;2.15;;;5.20;99.90;;;;;;5073067;28;20195;-77
2021/03/12 06:24:23;;;;;;;3.95;2.25;;;5.20;99.90;;;;;;5065149;28;20217;-77
2021/03/12 06:27:03;;;;;;;3.42;2.08;;;5.30;99.90;;;;;;5072551;28;20633;-75
2021/03/12 06:29:37;;;;;;;5.00;2.58;;;5.30;99.90;;;;;;5068180;28;20200;-75
2021/03/12 06:32:13;;;;;;;2.63;2.13;;;5.30;99.90;;;;;;5057037;28;20192;-75
2021/03/12 06:35:07;;;;;;;3.22;1.73;;;5.30;99.90;;;;;;5071495;28;20317;-76
2021/03/12 06:38:07;;;;;;;3.72;2.03;;;5.30;99.90;;;;;;5055794;28;20202;-78
2021/03/12 06:40:46;;;;;;;5.03;3.80;;;5.30;99.90;;;;;;5072302;28;20258;-76
2021/03/12 06:43:23;;;;;;;4.30;2.75;;;5.30;99.90;;;;;;5072160;28;20212;-75
2021/03/12 06:46:02;;;;;;;5.03;3.47;;;5.20;99.90;;;;;;5073734;28;20192;-75
2021/03/12 06:49:00;;;;;;;4.10;3.55;;;5.10;99.90;;;;;;5072614;28;20663;-77
2021/03/12 06:51:53;;;;;;;4.47;3.25;;;5.00;99.90;;;;;;5072083;28;20192;-76
2021/03/12 06:54:21;;;;;;;4.07;2.83;;;4.90;99.90;;;;;;5071689;28;20220;-76
2021/03/12 06:56:55;;;;;;;2.83;2.38;;;5.00;99.90;;;;;;5072170;28;20192;-76
2021/03/12 06:59:31;;;;;;;5.55;3.45;;;5.00;99.90;;;;;;5071675;28;20207;-75
2021/03/12 07:02:15;;;;;;;2.85;2.35;;;5.10;99.90;;;;;;5071886;28;20212;-75
2021/03/12 07:04:56;;;;;;;8.18;4.95;;;5.20;99.90;;;;;;5072801;28;20222;-76
2021/03/12 07:07:44;;;;;;;8.90;4.97;;;5.30;99.90;;;;;;5071932;28;20188;-76
2021/03/12 07:10:40;;;;;;;3.30;2.45;;;5.30;99.90;;;;;;5054629;28;20628;-76
2021/03/12 07:13:22;;;;;;;4.88;3.47;;;5.40;99.90;;;;;;5052146;28;20259;-77
2021/03/12 07:15:58;;;;;;;4.38;2.40;;;5.60;99.90;;;;;;5052051;28;20204;-75
2021/03/12 07:18:34;;;;;;;4.18;3.28;;;5.60;99.90;;;;;;5051997;28;20192;-76
2021/03/12 07:21:08;;;;;;;3.67;2.75;;;5.60;99.90;;;;;;5053973;28;20733;-77
2021/03/12 07:23:38;;;;;;;4.63;2.88;;;5.70;99.90;;;;;;5054158;28;20267;-78
2021/03/12 07:26:10;;;;;;;3.92;3.20;;;5.90;99.90;;;;;;5055820;28;20232;-79
2021/03/12 07:28:41;;;;;;;7.32;3.15;;;6.10;99.90;;;;;;5055642;28;20193;-78
2021/03/12 07:31:34;;;;;;;10.68;4.18;;;6.10;99.90;;;;;;5055667;28;20601;-77
2021/03/12 07:34:06;;;;;;;2.58;2.35;;;6.10;99.90;;;;;;5054370;28;20220;-78
2021/03/12 07:36:43;;;;;;;5.30;2.85;;;6.00;99.90;;;;;;5055923;28;20673;-78
2021/03/12 07:39:14;;;;;;;3.03;2.78;;;6.10;99.90;;;;;;5055841;28;20264;-78
2021/03/12 07:41:43;;;;;;;5.07;3.92;;;6.10;99.90;;;;;;5055310;28;20185;-78
2021/03/12 07:44:38;;;;;;;4.80;3.30;;;6.20;99.90;;;;;;5039435;28;20270;-77
2021/03/12 07:47:48;;;;;;;3.42;3.00;;;6.20;99.90;;;;;;5001641;28;20241;-79
2021/03/12 07:50:31;;;;;;;6.57;4.38;;;6.20;99.90;;;;;;5053606;28;20280;-76
2021/03/12 07:53:03;;;;;;;3.80;3.10;;;6.20;99.90;;;;;;5056938;28;20188;-80
2021/03/12 07:55:50;;;;;;;3.70;3.40;;;6.30;99.90;;;;;;5100997;22;20230;-72
2021/03/12 07:58:56;;;;;;;4.95;2.92;;;6.30;99.90;;;;;;5104415;28;20262;-72
2021/03/12 08:01:52;;;;;;;5.32;3.15;;;6.30;99.90;;;;;;5086556;28;20203;-73
2021/03/12 08:04:47;;;;;;;6.03;3.22;;;6.30;99.90;;;;;;5095024;28;20217;-70
2021/03/12 08:07:35;;;;;;;4.70;3.05;;;6.30;99.90;;;;;;5078454;28;20586;-71
2021/03/12 08:10:19;;;;;;;3.75;2.85;;;6.50;99.90;;;;;;5095180;28;20571;-71
2021/03/12 08:12:55;;;;;;;9.35;3.38;;;6.60;99.90;;;;;;5095715;28;20176;-69
2021/03/12 08:16:06;;;;;;;3.13;2.80;;;6.80;99.90;;;;;;5091194;28;20237;-70
2021/03/12 08:18:43;;;;;;;3.78;2.58;;;6.80;99.90;;;;;;5076064;28;20214;-70
2021/03/12 08:21:36;;;;;;;3.80;2.83;;;7.00;99.90;;;;;;5095181;28;20191;-72
2021/03/12 08:24:45;;;;;;;3.92;3.53;;;7.00;99.90;;;;;;5072694;28;20196;-72
2021/03/12 08:27:37;;;;;;;4.75;3.22;;;7.00;99.90;;;;;;4991129;28;20325;-70
2021/03/12 08:30:44;;;;;;;5.15;3.90;;;6.90;99.90;;;;;;5046313;28;20199;-73
2021/03/12 08:33:39;;;;;;;3.30;2.35;;;6.80;99.90;;;;;;5084372;28;20218;-73
2021/03/12 08:36:26;;;;;;;5.70;2.75;;;6.90;99.90;;;;;;5096963;28;20256;-72
2021/03/12 08:39:32;;;;;;;4.35;3.72;;;7.00;99.90;;;;;;5072997;28;20199;-71
2021/03/12 08:42:55;;;;;;;4.32;2.42;;;7.10;99.90;;;;;;5073646;28;20295;-71
2021/03/12 08:45:46;;;;;;;3.97;2.70;;;7.20;99.90;;;;;;5055093;28;20200;-71
2021/03/12 08:48:19;;;;;;;4.18;3.20;;;7.20;99.90;;;;;;5055229;28;20223;-72
2021/03/12 08:50:52;;;;;;;4.97;3.25;;;7.30;99.90;;;;;;5055527;28;20196;-74
2021/03/12 08:53:20;;;;;;;4.65;3.05;;;7.30;99.90;;;;;;5055856;28;20423;-74
2021/03/12 08:55:52;;;;;;;4.38;3.00;;;7.10;99.90;;;;;;5040191;28;20193;-74
2021/03/12 08:58:24;;;;;;;6.63;4.75;;;7.10;99.90;;;;;;5035302;28;20197;-74
2021/03/12 09:01:00;;;;;;;7.45;4.22;;;7.20;99.90;;;;;;5035757;28;20696;-73
2021/03/12 09:03:53;;;;;;;9.63;3.95;;;7.30;99.90;;;;;;5044433;28;20200;-77
2021/03/12 09:06:45;;;;;;;4.55;2.90;;;7.60;99.90;;;;;;5035006;28;20267;-76
2021/03/12 09:09:39;;;;;;;4.00;3.20;;;7.60;99.90;;;;;;5034386;28;20197;-77
2021/03/12 09:12:13;;;;;;;5.65;3.60;;;7.50;99.90;;;;;;5035076;28;20269;-77
2021/03/12 09:14:48;;;;;;;4.55;3.47;;;7.40;99.90;;;;;;5035343;28;20696;-76
2021/03/12 09:17:19;;;;;;;4.07;3.60;;;7.40;99.90;;;;;;5035126;28;20216;-76
2021/03/12 09:19:53;;;;;;;5.05;3.17;;;7.30;99.90;;;;;;5034605;28;20193;-76
2021/03/12 09:22:27;;;;;;;5.30;3.45;;;7.30;99.90;;;;;;5035082;28;20604;-77
2021/03/12 09:24:59;;;;;;;6.90;3.38;;;7.40;99.90;;;;;;5034873;28;20217;-76
2021/03/12 09:27:57;;;;;;;4.10;2.95;;;7.50;99.90;;;;;;5052541;28;20705;-75
2021/03/12 09:30:27;;;;;;;4.45;3.63;;;7.70;99.90;;;;;;5034220;28;20204;-75
2021/03/12 09:33:06;;;;;;;4.72;3.50;;;7.90;99.90;;;;;;5034482;28;20203;-77
2021/03/12 09:35:55;;;;;;;10.48;2.80;;;7.90;99.90;;;;;;5034000;28;20199;-75
2021/03/12 09:38:38;;;;;;;3.15;2.83;;;8.20;99.90;;;;;;5034236;28;20207;-75
2021/03/12 09:41:19;;;;;;;3.78;3.33;;;8.30;99.90;;;;;;5035496;28;20220;-77
2021/03/12 09:44:03;;;;;;;4.60;2.95;;;8.30;98.30;;;;;;5034676;28;20192;-75
2021/03/12 09:46:38;;;;;;;2.80;2.20;;;8.30;96.10;;;;;;5036987;28;20239;-75
2021/03/12 09:49:29;;;;;;;4.47;2.90;;;8.30;98.90;;;;;;5039145;28;20731;-76
2021/03/12 09:52:00;;;;;;;4.13;2.70;;;8.30;97.80;;;;;;5034956;28;20661;-76
2021/03/12 09:54:32;;;;;;;2.95;2.55;;;8.30;95.40;;;;;;5036106;28;20208;-76
2021/03/12 09:56:59;;;;;;;2.92;2.65;;;8.30;97.90;;;;;;5034703;28;20216;-72
2021/03/12 09:59:31;;;;;;;2.63;2.42;;;8.40;94.30;;;;;;5050705;28;20192;-73
2021/03/12 10:02:27;;;;;;;5.65;3.80;;;8.60;87.90;;;;;;5050790;28;20687;-72
2021/03/12 10:05:20;;;;;;;5.05;2.38;;;8.70;84.50;;;;;;5050754;28;20297;-73
2021/03/12 10:08:00;;;;;;;5.43;2.15;;;8.70;90.40;;;;;;5052607;28;20306;-74
2021/03/12 10:10:36;;;;;;;4.70;3.40;;;8.80;81.80;;;;;;5051468;28;20197;-71
2021/03/12 10:13:06;;;;;;;3.08;1.70;;;8.70;81.20;;;;;;5051693;28;20251;-74
2021/03/12 10:15:42;;;;;;;2.30;2.10;;;8.60;70.50;;;;;;5051108;28;20197;-72
2021/03/12 10:18:23;;;;;;;4.70;1.98;;;8.30;71.70;;;;;;5052410;28;20216;-73
2021/03/12 10:21:11;;;;;;;3.67;1.80;;;8.20;79.00;;;;;;5052658;28;20172;-73
2021/03/12 10:23:38;;;;;;;7.50;2.60;;;8.20;84.90;;;;;;5053456;28;20649;-72
2021/03/12 10:26:10;;;;;;;2.63;1.80;;;8.20;66.70;;;;;;5052923;28;20220;-73
2021/03/12 10:28:37;;;;;;;2.38;1.60;;;8.50;60.00;;;;;;5057500;28;20212;-73
2021/03/12 10:31:05;;;;;;;1.58;1.40;;;8.60;51.50;;;;;;5060168;28;20203;-75
2021/03/12 10:33:33;;;;;;;4.63;2.15;;;8.60;44.30;;;;;;5062509;28;20287;-74
2021/03/12 10:36:04;;;;;;;2.75;1.67;;;8.70;49.20;;;;;;5072611;28;20212;-71
2021/03/12 10:38:34;;;;;;;1.65;1.50;;;9.00;38.80;;;;;;5072273;28;20191;-73
2021/03/12 10:41:17;;;;;;;1.88;1.40;;;9.10;34.70;;;;;;5072351;28;20540;-70
2021/03/12 10:43:56;;;;;;;1.70;1.50;;;9.00;28.10;;;;;;5074383;28;20183;-72
2021/03/12 10:46:23;;;;;;;1.80;1.30;;;8.90;32.20;;;;;;5071888;28;20254;-70
2021/03/12 10:48:52;;;;;;;2.00;1.10;;;9.00;31.20;;;;;;5072771;28;20258;-72
2021/03/12 10:51:20;;;;;;;2.53;1.77;;;9.10;35.20;;;;;;5072001;28;20755;-74
2021/03/12 10:53:50;;;;;;;5.32;1.40;;;9.30;33.60;;;;;;5072600;28;20195;-73
2021/03/12 10:56:17;;;;;;;3.22;1.33;;;9.40;34.70;;;;;;5072589;28;20216;-72
2021/03/12 10:58:45;;;;;;;2.45;1.60;;;9.50;32.30;;;;;;5073990;28;20173;-73
2021/03/12 11:01:14;;;;;;;5.15;2.20;;;9.50;29.00;;;;;;5072623;28;20222;-72
2021/03/12 11:03:43;;;;;;;6.05;1.80;;;9.40;26.60;;;;;;5071782;28;20184;-76
2021/03/12 11:06:13;;;;;;;2.40;1.52;;;9.20;24.10;;;;;;5071579;28;20711;-76
2021/03/12 11:08:42;;;;;;;4.40;2.28;;;9.20;26.10;;;;;;5071473;28;20183;-76
2021/03/12 11:11:12;;;;;;;2.97;2.00;;;9.50;24.60;;;;;;5071303;28;20211;-75
2021/03/12 11:13:41;;;;;;;3.15;1.55;;;9.50;23.80;;;;;;5070888;28;20645;-75
2021/03/12 11:16:10;;;;;;;2.70;1.75;;;9.50;23.60;;;;;;5069542;28;20215;-74
2021/03/12 11:18:38;;;;;;;2.75;1.67;;;9.60;22.80;;;;;;5069123;28;20188;-73
2021/03/12 11:21:09;;;;;;;4.15;1.92;;;9.40;23.50;;;;;;5070886;28;20204;-75
2021/03/12 11:23:37;;;;;;;4.75;2.03;;;9.20;23.20;;;;;;5070485;28;20279;-74
2021/03/12 11:26:06;;;;;;;3.08;1.98;;;9.10;24.10;;;;;;5070546;28;20221;-75
2021/03/12 11:28:33;;;;;;;5.22;1.80;;;9.30;23.40;;;;;;5070317;28;20251;-73
2021/03/12 11:31:02;;;;;;;3.78;1.55;;;9.70;21.20;;;;;;5070776;28;20185;-71
2021/03/12 11:33:30;;;;;;;7.55;2.10;;;10.00;18.00;;;;;;5070307;28;20192;-73
2021/03/12 11:36:00;;;;;;;2.25;1.98;;;10.20;16.30;;;;;;5070388;28;20207;-72
2021/03/12 11:38:27;;;;;;;6.45;1.40;;;10.30;12.90;;;;;;5065600;28;20196;-73
2021/03/12 11:40:56;;;;;;;6.47;1.67;;;10.50;14.20;;;;;;5058572;28;20885;-74
2021/03/12 11:43:23;;;;;;;1.55;1.35;;;10.50;12.30;;;;;;5050985;28;20181;-73
2021/03/12 11:45:51;;;;;;;7.20;1.48;;;10.10;11.10;;;;;;5049079;28;20216;-74
2021/03/12 11:48:21;;;;;;;2.70;1.88;;;9.90;11.90;;;;;;5051443;28;20196;-74
2021/03/12 11:50:50;;;;;;;2.47;2.17;;;9.70;12.20;;;;;;5054213;28;20197;-73
2021/03/12 11:53:17;;;;;;;2.95;2.75;;;9.60;12.30;;;;;;5051196;28;20189;-74
2021/03/12 11:55:44;;;;;;;3.28;2.00;;;9.40;12.20;;;;;;5065098;28;20613;-72
2021/03/12 11:58:12;;;;;;;2.30;2.10;;;9.40;13.40;;;;;;5070288;28;20525;-71
2021/03/12 12:00:41;;;;;;;4.63;2.45;;;9.40;14.30;;;;;;5070220;28;20274;-73
2021/03/12 12:03:26;;;;;;;2.30;2.00;;;9.60;14.40;;;;;;5069973;28;20194;-73
2021/03/12 12:05:53;;;;;;;2.85;2.50;;;10.00;12.70;;;;;;5072297;28;20618;-73
2021/03/12 12:08:20;;;;;;;3.05;2.42;;;10.20;11.50;;;;;;5074432;28;20176;-74
2021/03/12 12:10:48;;;;;;;2.85;1.95;;;10.50;13.00;;;;;;5060544;28;20200;-72
2021/03/12 12:13:15;;;;;;;4.68;2.60;;;10.80;11.50;;;;;;5079375;28;20180;-72
2021/03/12 12:15:43;;;;;;;4.80;3.60;;;11.00;10.30;;;;;;5073901;28;20184;-72
2021/03/12 12:18:11;;;;;;;4.10;2.20;;;11.30;9.70;;;;;;5073306;28;20299;-73
2021/03/12 12:20:58;;;;;;;3.15;2.60;;;11.30;7.70;;;;;;5074612;28;20495;-73
2021/03/12 12:23:26;;;;;;;6.20;3.33;;;10.90;7.20;;;;;;5078491;28;20207;-75
2021/03/12 12:25:53;;;;;;;6.32;3.38;;;10.80;7.90;;;;;;5081592;28;20500;-72
2021/03/12 12:28:21;;;;;;;9.05;3.53;;;10.80;8.80;;;;;;5057318;28;20196;-72
2021/03/12 12:30:48;;;;;;;3.20;2.90;;;10.60;8.70;;;;;;5073215;28;20589;-74
2021/03/12 12:33:16;;;;;;;4.15;2.58;;;10.40;9.60;;;;;;5073241;28;20219;-74
2021/03/12 12:35:43;;;;;;;2.90;2.70;;;10.40;9.40;;;;;;5073603;28;20185;-72
2021/03/12 12:38:10;;;;;;;4.07;2.90;;;10.30;9.70;;;;;;5073475;28;20188;-74
2021/03/12 12:40:37;;;;;;;3.72;2.78;;;10.30;9.30;;;;;;5091765;28;20558;-72
2021/03/12 12:43:05;;;;;;;3.50;3.13;;;10.30;9.10;;;;;;5038645;28;20196;-73
2021/03/12 12:45:33;;;;;;;2.92;2.17;;;10.30;9.10;;;;;;5054957;28;20192;-75
2021/03/12 12:48:00;;;;;;;3.20;2.90;;;10.30;9.70;;;;;;5055638;28;20209;-73
2021/03/12 12:50:28;;;;;;;3.17;2.05;;;10.40;9.20;;;;;;5053789;28;20173;-74
2021/03/12 12:52:56;;;;;;;3.15;2.22;;;10.50;7.20;;;;;;5054168;28;20196;-74
2021/03/12 12:55:23;;;;;;;3.10;2.20;;;10.30;6.60;;;;;;5054955;28;20188;-72
2021/03/12 12:57:50;;;;;;;5.18;2.33;;;10.20;7.00;;;;;;5063174;28;20203;-74
2021/03/12 13:00:19;;;;;;;7.53;2.58;;;10.20;7.60;;;;;;5067415;28;20199;-72
2021/03/12 13:02:47;;;;;;;2.55;1.63;;;10.20;6.50;;;;;;5057159;28;20185;-71
2021/03/12 13:05:14;;;;;;;2.85;2.17;;;10.40;7.50;;;;;;5054655;28;20195;-71
2021/03/12 13:07:41;;;;;;;2.50;1.55;;;10.60;6.30;;;;;;5055478;28;20574;-71
2021/03/12 13:10:10;;;;;;;2.55;2.30;;;10.40;4.00;;;;;;5055992;28;20200;-70
2021/03/12 13:12:38;;;;;;;7.72;2.45;;;10.30;4.50;;;;;;5064434;28;20272;-69
2021/03/12 13:15:07;;;;;;;4.28;2.90;;;10.30;4.70;;;;;;5074112;28;20187;-73
2021/03/12 13:17:35;;;;;;;3.85;1.90;;;10.10;4.60;;;;;;5072741;28;20311;-76
2021/03/12 13:20:07;;;;;;;8.40;1.90;;;10.10;4.20;;;;;;5073815;28;20254;-73
2021/03/12 13:22:35;;;;;;;3.25;1.58;;;10.20;4.50;;;;;;5073597;28;20883;-74
2021/03/12 13:25:04;;;;;;;2.47;1.25;;;10.50;2.50;;;;;;5073888;28;20263;-76
2021/03/12 13:27:35;;;;;;;2.38;1.80;;;10.50;2.00;;;;;;5063881;28;20215;-73
2021/03/12 13:30:05;;;;;;;3.13;1.75;;;10.60;2.00;;;;;;5072711;28;20184;-75
2021/03/12 13:32:32;;;;;;;2.63;1.40;;;10.70;2.00;;;;;;5073090;28;20184;-74